createdAt,value
2022-11-05T00:01:03.279Z,21.90
2022-11-05T00:03:48.522Z,24.83
2022-11-05T00:06:34.017Z,25.52
2022-11-05T00:09:19.289Z,26.45
2022-11-05T00:12:04.781Z,26.00
2022-11-05T00:14:49.881Z,31.05
2022-11-05T00:17:16.451Z,26.25
2022-11-05T00:19:43.049Z,22.75
2022-11-05T00:22:28.132Z,30.70
2022-11-05T00:25:13.217Z,26.20
2022-11-05T00:27:40.800Z,28.50
2022-11-05T00:30:09.261Z,31.33
2022-11-05T00:32:35.857Z,26.08
2022-11-05T00:35:02.495Z,26.13
2022-11-05T00:37:29.175Z,25.17
2022-11-05T00:39:55.800Z,29.27
2022-11-05T00:42:41.225Z,25.50
2022-11-05T00:45:08.214Z,22.55
2022-11-05T00:48:01.029Z,25.10
2022-11-05T00:50:28.206Z,19.63
2022-11-05T00:52:56.996Z,25.52
2022-11-05T00:55:43.976Z,19.95
2022-11-05T00:58:20.143Z,26.83
2022-11-05T01:01:12.899Z,22.38
2022-11-05T01:03:40.159Z,20.55
2022-11-05T01:06:15.829Z,22.35
2022-11-05T01:08:44.470Z,21.17
2022-11-05T01:11:37.272Z,25.45
2022-11-05T01:14:10.365Z,25.58
2022-11-05T01:16:38.229Z,28.40
2022-11-05T01:19:06.743Z,24.58
2022-11-05T01:21:33.826Z,28.35
2022-11-05T01:24:00.923Z,29.10
2022-11-05T01:26:27.599Z,27.85
2022-11-05T01:28:55.746Z,31.48
2022-11-05T01:31:23.673Z,29.05
2022-11-05T01:33:50.922Z,29.38
2022-11-05T01:36:17.844Z,32.40
2022-11-05T01:38:44.556Z,31.05
2022-11-05T01:41:11.519Z,24.25
2022-11-05T01:43:54.629Z,28.80
2022-11-05T01:46:33.521Z,30.95
2022-11-05T01:49:31.951Z,28.58
2022-11-05T01:52:01.658Z,30.17
2022-11-05T01:54:31.471Z,31.15
2022-11-05T01:57:07.345Z,30.17
2022-11-05T01:59:43.272Z,32.03
2022-11-05T02:02:10.542Z,25.10
2022-11-05T02:05:07.681Z,25.98
2022-11-05T02:07:34.511Z,28.08
2022-11-05T02:10:09.418Z,27.90
2022-11-05T02:12:39.698Z,28.85
2022-11-05T02:15:07.035Z,30.70
2022-11-05T02:17:42.660Z,27.30
2022-11-05T02:20:18.254Z,25.48
2022-11-05T02:23:27.202Z,22.30
2022-11-05T02:26:21.245Z,23.48
2022-11-05T02:28:56.958Z,28.85
2022-11-05T02:31:40.447Z,23.80
2022-11-05T02:34:27.983Z,29.48
2022-11-05T02:37:16.450Z,28.58
2022-11-05T02:40:07.906Z,29.75
2022-11-05T02:42:53.149Z,31.45
2022-11-05T02:45:34.296Z,28.75
2022-11-05T02:48:31.470Z,24.27
2022-11-05T02:51:04.235Z,29.23
2022-11-05T02:53:46.039Z,30.20
2022-11-05T02:56:25.723Z,29.88
2022-11-05T02:58:52.318Z,30.15
2022-11-05T03:01:19.160Z,27.50
2022-11-05T03:03:48.550Z,24.95
2022-11-05T03:06:40.846Z,25.83
2022-11-05T03:09:13.765Z,26.83
2022-11-05T03:12:05.102Z,30.55
2022-11-05T03:14:45.295Z,28.13
2022-11-05T03:17:23.937Z,24.50
2022-11-05T03:20:15.712Z,25.37
2022-11-05T03:22:54.473Z,24.17
2022-11-05T03:25:24.790Z,21.58
2022-11-05T03:27:56.229Z,27.52
2022-11-05T03:30:25.064Z,24.15
2022-11-05T03:32:57.228Z,25.50
2022-11-05T03:35:28.781Z,21.10
2022-11-05T03:38:02.807Z,19.58
2022-11-05T03:40:33.682Z,20.60
2022-11-05T03:43:04.366Z,22.38
2022-11-05T03:45:41.218Z,22.60
2022-11-05T03:48:11.783Z,20.67
2022-11-05T03:50:45.869Z,21.08
2022-11-05T03:53:20.903Z,21.52
2022-11-05T03:56:13.690Z,22.45
2022-11-05T03:58:45.625Z,15.25
2022-11-05T04:01:12.647Z,18.02
2022-11-05T04:03:39.210Z,16.08
2022-11-05T04:06:26.403Z,23.85
2022-11-05T04:09:11.707Z,28.75
2022-11-05T04:11:57.196Z,22.17
2022-11-05T04:14:23.855Z,32.83
2022-11-05T04:17:08.787Z,26.92
2022-11-05T04:20:11.914Z,22.27
2022-11-05T04:22:57.185Z,31.00
2022-11-05T04:25:23.789Z,27.70
2022-11-05T04:27:51.374Z,28.23
2022-11-05T04:30:19.415Z,27.58
2022-11-05T04:33:04.333Z,29.23
2022-11-05T04:35:37.660Z,27.23
2022-11-05T04:38:06.261Z,33.43
2022-11-05T04:40:32.879Z,31.33
2022-11-05T04:42:59.900Z,24.27
2022-11-05T04:45:29.965Z,27.73
2022-11-05T04:47:56.570Z,31.60
2022-11-05T04:50:23.522Z,39.47
2022-11-05T04:52:50.191Z,43.23
2022-11-05T04:55:16.922Z,39.63
2022-11-05T04:57:44.090Z,37.83
2022-11-05T05:00:11.244Z,49.20
2022-11-05T05:02:37.912Z,33.43
2022-11-05T05:05:05.329Z,42.37
2022-11-05T05:07:33.515Z,38.00
2022-11-05T05:10:01.384Z,37.63
2022-11-05T05:12:28.589Z,39.70
2022-11-05T05:14:55.264Z,46.87
2022-11-05T05:17:22.052Z,40.13
2022-11-05T05:20:07.397Z,55.27
2022-11-05T05:22:34.253Z,111.70
2022-11-05T05:25:00.823Z,74.10
2022-11-05T05:27:32.034Z,52.87
2022-11-05T05:29:59.530Z,52.57
2022-11-05T05:32:27.092Z,44.22
2022-11-05T05:34:53.782Z,39.80
2022-11-05T05:37:20.614Z,44.33
2022-11-05T05:39:48.141Z,44.43
2022-11-05T05:42:15.054Z,44.47
2022-11-05T05:44:42.892Z,49.10
2022-11-05T05:47:09.558Z,44.23
2022-11-05T05:49:36.146Z,39.70
2022-11-05T05:52:02.815Z,47.27
2022-11-05T05:54:33.468Z,67.27
2022-11-05T05:57:01.997Z,61.47
2022-11-05T05:59:28.574Z,46.27
2022-11-05T06:01:55.339Z,47.10
2022-11-05T06:04:22.092Z,43.17
2022-11-05T06:06:48.649Z,79.80
2022-11-05T06:09:15.940Z,47.60
2022-11-05T06:11:42.740Z,45.60
2022-11-05T06:14:11.931Z,42.00
2022-11-05T06:16:39.990Z,35.07
2022-11-05T06:19:07.746Z,35.00
2022-11-05T06:21:34.682Z,34.90
2022-11-05T06:24:04.747Z,75.37
2022-11-05T06:26:31.629Z,43.03
2022-11-05T06:28:58.261Z,40.30
2022-11-05T06:31:25.256Z,38.43
2022-11-05T06:33:51.989Z,34.43
2022-11-05T06:36:19.735Z,31.40
2022-11-05T06:38:46.805Z,33.43
2022-11-05T06:41:13.681Z,38.07
2022-11-05T06:43:40.787Z,37.33
2022-11-05T06:46:07.847Z,42.87
2022-11-05T06:48:34.584Z,44.63
2022-11-05T06:51:01.574Z,214.33
2022-11-05T06:53:28.670Z,638.47
2022-11-05T06:55:55.392Z,542.27
2022-11-05T06:58:22.347Z,355.37
2022-11-05T07:00:49.974Z,145.47
2022-11-05T07:03:16.902Z,262.73
2022-11-05T07:05:49.125Z,214.97
2022-11-05T07:08:16.138Z,295.67
2022-11-05T07:10:42.819Z,322.53
2022-11-05T07:13:09.641Z,331.33
2022-11-05T07:15:36.765Z,208.67
2022-11-05T07:18:04.291Z,171.67
2022-11-05T07:20:34.221Z,139.33
2022-11-05T07:23:13.364Z,92.77
2022-11-05T07:25:41.798Z,120.43
2022-11-05T07:28:09.182Z,99.93
2022-11-05T07:30:36.328Z,160.97
2022-11-05T07:33:03.728Z,150.33
2022-11-05T07:35:30.438Z,156.07
2022-11-05T07:37:57.382Z,154.30
2022-11-05T07:40:26.343Z,140.17
2022-11-05T07:42:55.742Z,120.37
2022-11-05T07:45:22.674Z,192.60
2022-11-05T07:47:57.610Z,242.83
2022-11-05T07:50:27.947Z,196.30
2022-11-05T07:53:00.147Z,151.33
2022-11-05T07:55:26.824Z,208.80
2022-11-05T07:57:53.397Z,210.60
2022-11-05T08:00:22.559Z,220.40
2022-11-05T08:03:09.784Z,198.97
2022-11-05T08:05:39.270Z,192.43
2022-11-05T08:08:08.049Z,176.17
2022-11-05T08:10:35.598Z,172.50
2022-11-05T08:13:02.500Z,173.57
2022-11-05T08:15:29.259Z,201.60
2022-11-05T08:18:11.855Z,269.33
2022-11-05T08:20:38.897Z,279.03
2022-11-05T08:23:05.477Z,221.30
2022-11-05T08:25:32.290Z,229.67
2022-11-05T08:28:07.803Z,142.17
2022-11-05T08:30:35.122Z,146.83
2022-11-05T08:33:05.432Z,143.10
2022-11-05T08:35:33.545Z,134.17
2022-11-05T08:38:02.862Z,196.60
2022-11-05T08:40:31.700Z,227.10
2022-11-05T08:42:59.084Z,153.10
2022-11-05T08:45:26.609Z,116.37
2022-11-05T08:48:03.305Z,140.77
2022-11-05T08:50:30.015Z,162.20
2022-11-05T08:52:56.962Z,146.47
2022-11-05T08:55:23.659Z,80.40
2022-11-05T08:57:56.349Z,83.30
2022-11-05T09:00:23.340Z,122.53
2022-11-05T09:02:49.992Z,126.57
2022-11-05T09:05:16.820Z,62.93
2022-11-05T09:07:43.385Z,105.27
2022-11-05T09:10:10.564Z,113.17
2022-11-05T09:12:37.153Z,103.05
2022-11-05T09:15:03.942Z,68.83
2022-11-05T09:17:30.675Z,82.50
2022-11-05T09:19:57.308Z,23.50
2022-11-05T09:22:23.862Z,25.20
2022-11-05T09:24:50.440Z,22.87
2022-11-05T09:27:17.101Z,22.50
2022-11-05T09:29:43.697Z,25.90
2022-11-05T09:32:10.467Z,20.47
2022-11-05T09:34:37.051Z,20.52
2022-11-05T09:37:04.137Z,22.27
2022-11-05T09:39:30.788Z,18.75
2022-11-05T09:42:02.759Z,21.40
2022-11-05T09:44:51.018Z,17.73
2022-11-05T09:47:25.846Z,18.23
2022-11-05T09:49:54.817Z,18.75
2022-11-05T09:52:27.422Z,17.52
2022-11-05T09:54:55.612Z,17.20
2022-11-05T09:57:28.528Z,20.52
2022-11-05T10:00:05.966Z,25.83
2022-11-05T10:02:35.472Z,21.83
2022-11-05T10:05:10.363Z,26.50
2022-11-05T10:07:47.612Z,27.95
2022-11-05T10:10:45.210Z,20.27
2022-11-05T10:13:22.002Z,20.05
2022-11-05T10:15:58.222Z,21.98
2022-11-05T10:18:34.880Z,18.33
2022-11-05T10:21:01.578Z,16.23
2022-11-05T10:23:28.441Z,16.38
2022-11-05T10:26:00.158Z,13.55
2022-11-05T10:28:31.015Z,13.07
2022-11-05T10:31:12.182Z,10.27
2022-11-05T10:34:01.736Z,14.63
2022-11-05T10:36:33.046Z,13.25
2022-11-05T10:39:11.898Z,13.75
2022-11-05T10:41:50.006Z,12.90
2022-11-05T10:44:33.198Z,11.75
2022-11-05T10:47:08.509Z,12.25
2022-11-05T10:50:00.372Z,11.07
2022-11-05T10:52:35.785Z,10.82
2022-11-05T10:55:07.255Z,10.52
2022-11-05T10:57:39.518Z,10.40
2022-11-05T11:00:23.946Z,12.20
2022-11-05T11:02:56.439Z,11.15
2022-11-05T11:05:29.019Z,13.13
2022-11-05T11:08:18.230Z,11.73
2022-11-05T11:10:54.669Z,13.57
2022-11-05T11:13:47.866Z,16.23
2022-11-05T11:16:17.014Z,15.77
2022-11-05T11:18:43.964Z,15.32
2022-11-05T11:21:16.682Z,13.23
2022-11-05T11:23:53.033Z,14.20
2022-11-05T11:26:21.799Z,18.00
2022-11-05T11:29:10.715Z,14.05
2022-11-05T11:31:39.608Z,14.25
2022-11-05T11:34:28.074Z,16.77
2022-11-05T11:37:00.171Z,13.80
2022-11-05T11:39:30.462Z,14.05
2022-11-05T11:42:00.469Z,19.73
2022-11-05T11:44:33.695Z,13.55
2022-11-05T11:47:13.803Z,13.57
2022-11-05T11:49:50.824Z,14.82
2022-11-05T11:52:35.443Z,15.27
2022-11-05T11:55:28.272Z,13.80
2022-11-05T11:58:08.045Z,14.73
2022-11-05T12:00:41.453Z,15.85
2022-11-05T12:03:34.874Z,16.02
2022-11-05T12:06:26.830Z,12.48
2022-11-05T12:09:22.729Z,13.40
2022-11-05T12:11:54.878Z,12.90
2022-11-05T12:14:46.196Z,15.75
2022-11-05T12:17:37.599Z,14.43
2022-11-05T12:20:16.121Z,13.27
2022-11-05T12:23:18.253Z,12.00
2022-11-05T12:26:05.668Z,14.07
2022-11-05T12:29:16.571Z,16.95
2022-11-05T12:31:43.930Z,12.55
2022-11-05T12:34:31.652Z,12.93
2022-11-05T12:36:58.199Z,13.93
2022-11-05T12:39:46.871Z,14.45
2022-11-05T12:42:25.664Z,11.95
2022-11-05T12:45:12.774Z,12.18
2022-11-05T12:48:26.849Z,16.05
2022-11-05T12:51:02.769Z,16.52
2022-11-05T12:53:40.024Z,14.20
2022-11-05T12:56:21.274Z,13.77
2022-11-05T12:58:55.093Z,15.10
2022-11-05T13:01:31.326Z,13.85
2022-11-05T13:04:01.616Z,16.25
2022-11-05T13:06:39.834Z,17.73
2022-11-05T13:09:17.913Z,15.15
2022-11-05T13:11:48.282Z,16.95
2022-11-05T13:14:23.098Z,16.05
2022-11-05T13:16:53.873Z,19.55
2022-11-05T13:19:29.729Z,18.40
2022-11-05T13:22:34.574Z,19.50
2022-11-05T13:25:10.731Z,17.27
2022-11-05T13:28:15.043Z,16.83
2022-11-05T13:30:48.837Z,19.80
2022-11-05T13:33:23.754Z,18.23
2022-11-05T13:36:18.058Z,23.55
2022-11-05T13:39:01.340Z,20.50
2022-11-05T13:41:36.281Z,20.27
2022-11-05T13:44:05.769Z,21.02
2022-11-05T13:46:43.461Z,21.98
2022-11-05T13:49:21.795Z,20.35
2022-11-05T13:51:53.011Z,17.45
2022-11-05T13:54:48.887Z,17.20
2022-11-05T13:57:48.632Z,17.83
2022-11-05T14:01:03.699Z,17.80
2022-11-05T14:03:30.509Z,21.30
2022-11-05T14:06:05.347Z,19.40
2022-11-05T14:08:43.827Z,16.80
2022-11-05T14:11:37.534Z,14.38
2022-11-05T14:14:17.607Z,14.25
2022-11-05T14:17:10.233Z,13.82
2022-11-05T14:19:59.700Z,19.80
2022-11-05T14:22:32.048Z,14.75
2022-11-05T14:25:00.150Z,15.25
2022-11-05T14:27:29.756Z,15.77
2022-11-05T14:29:56.383Z,15.70
2022-11-05T14:32:25.745Z,14.00
2022-11-05T14:34:55.249Z,17.10
2022-11-05T14:37:31.173Z,17.10
2022-11-05T14:40:21.779Z,17.70
2022-11-05T14:42:55.038Z,16.77
2022-11-05T14:45:34.574Z,15.40
2022-11-05T14:48:04.962Z,13.80
2022-11-05T14:50:38.947Z,14.88
2022-11-05T14:53:28.371Z,14.20
2022-11-05T14:56:11.703Z,17.17
2022-11-05T14:58:40.669Z,15.93
2022-11-05T15:01:29.026Z,15.65
2022-11-05T15:04:26.505Z,14.02
2022-11-05T15:07:02.209Z,15.43
2022-11-05T15:09:37.070Z,12.18
2022-11-05T15:12:13.948Z,11.02
2022-11-05T15:15:01.970Z,12.57
2022-11-05T15:17:38.812Z,13.30
2022-11-05T15:20:13.714Z,14.65
2022-11-05T15:22:53.461Z,14.30
2022-11-05T15:25:30.688Z,15.63
2022-11-05T15:28:11.338Z,15.80
2022-11-05T15:30:37.995Z,13.35
2022-11-05T15:33:21.259Z,14.65
2022-11-05T15:35:47.957Z,12.18
2022-11-05T15:38:31.645Z,18.23
2022-11-05T15:41:05.300Z,12.45
2022-11-05T15:43:32.558Z,14.65
2022-11-05T15:46:02.924Z,18.75
2022-11-05T15:48:30.220Z,13.10
2022-11-05T15:50:57.042Z,14.77
2022-11-05T15:56:49.169Z,13.75
2022-11-05T15:59:26.990Z,14.75
2022-11-05T16:01:58.054Z,14.95
2022-11-05T16:04:31.451Z,16.92
2022-11-05T16:07:01.582Z,13.38
2022-11-05T16:09:31.226Z,19.00
2022-11-05T16:12:19.514Z,15.55
2022-11-05T16:15:10.621Z,19.38
2022-11-05T16:17:40.234Z,18.35
2022-11-05T16:20:25.088Z,17.38
2022-11-05T16:23:03.859Z,15.98
2022-11-05T16:25:43.928Z,16.70
2022-11-05T16:28:23.750Z,16.48
2022-11-05T16:31:05.353Z,15.57
2022-11-05T16:33:45.393Z,17.60
2022-11-05T16:36:12.945Z,14.90
2022-11-05T16:38:39.929Z,15.45
2022-11-05T16:41:06.699Z,19.35
2022-11-05T16:43:34.512Z,14.82
2022-11-05T16:46:01.980Z,20.10
2022-11-05T16:48:28.584Z,19.70
2022-11-05T16:50:55.280Z,13.63
2022-11-05T16:53:21.953Z,17.85
2022-11-05T16:55:48.746Z,17.45
2022-11-05T16:58:24.109Z,16.00
2022-11-05T17:00:54.773Z,15.43
2022-11-05T17:03:21.546Z,16.65
2022-11-05T17:05:48.207Z,15.00
2022-11-05T17:08:15.356Z,17.92
2022-11-05T17:10:42.175Z,17.80
2022-11-05T17:13:14.135Z,15.23
2022-11-05T17:15:43.846Z,17.70
2022-11-05T17:18:16.916Z,13.13
2022-11-05T17:20:51.131Z,14.60
2022-11-05T17:23:20.607Z,14.43
2022-11-05T17:25:56.631Z,17.58
2022-11-05T17:28:23.806Z,18.23
2022-11-05T17:30:53.056Z,15.70
2022-11-05T17:33:21.262Z,12.30
2022-11-05T17:35:48.227Z,13.18
2022-11-05T17:38:15.234Z,11.93
2022-11-05T17:40:42.610Z,15.85
2022-11-05T17:43:09.637Z,16.10
2022-11-05T17:45:42.395Z,15.82
2022-11-05T17:48:10.241Z,15.63
2022-11-05T17:50:43.917Z,16.30
2022-11-05T17:53:11.529Z,13.82
2022-11-05T17:55:41.655Z,14.85
2022-11-05T17:58:08.460Z,15.70
2022-11-05T18:00:35.577Z,14.13
2022-11-05T18:03:02.755Z,11.77
2022-11-05T18:05:31.046Z,14.63
2022-11-05T18:07:58.394Z,11.82
2022-11-05T18:10:25.644Z,11.82
2022-11-05T18:12:52.353Z,10.48
2022-11-05T18:15:19.249Z,8.10
2022-11-05T18:17:46.413Z,11.45
2022-11-05T18:20:19.361Z,12.18
2022-11-05T18:22:48.790Z,9.00
2022-11-05T18:25:15.534Z,10.40
2022-11-05T18:27:42.124Z,15.35
2022-11-05T18:30:10.392Z,11.23
2022-11-05T18:32:36.972Z,11.68
2022-11-05T18:35:03.811Z,12.25
2022-11-05T18:37:30.670Z,9.75
2022-11-05T18:39:57.236Z,9.60
2022-11-05T18:42:25.359Z,12.25
2022-11-05T18:44:52.190Z,17.35
2022-11-05T18:47:18.980Z,14.75
2022-11-05T18:49:45.567Z,13.13
2022-11-05T18:52:12.229Z,13.02
2022-11-05T18:54:39.198Z,12.32
2022-11-05T18:57:06.006Z,10.60
2022-11-05T18:59:38.228Z,12.52
2022-11-05T19:02:07.641Z,12.48
2022-11-05T19:04:37.338Z,11.38
2022-11-05T19:07:05.875Z,8.10
2022-11-05T19:09:37.168Z,10.40
2022-11-05T19:12:05.075Z,12.73
2022-11-05T19:14:31.867Z,9.48
2022-11-05T19:16:59.471Z,11.88
2022-11-05T19:19:26.997Z,12.65
2022-11-05T19:21:53.611Z,10.68
2022-11-05T19:24:20.504Z,10.25
2022-11-05T19:26:47.551Z,15.10
2022-11-05T19:29:14.236Z,17.63
2022-11-05T19:31:40.843Z,15.77
2022-11-05T19:34:07.599Z,15.85
2022-11-05T19:36:34.291Z,13.10
2022-11-05T19:39:06.449Z,15.30
2022-11-05T19:41:33.372Z,22.70
2022-11-05T19:44:01.756Z,19.85
2022-11-05T19:46:30.139Z,20.73
2022-11-05T19:48:57.041Z,14.63
2022-11-05T19:51:25.959Z,14.25
2022-11-05T19:53:53.619Z,16.00
2022-11-05T19:56:23.492Z,15.05
2022-11-05T19:58:50.723Z,18.77
2022-11-05T20:01:18.906Z,16.42
2022-11-05T20:03:46.391Z,15.35
2022-11-05T20:06:16.073Z,15.48
2022-11-05T20:09:07.113Z,17.70
2022-11-05T20:11:31.556Z,17.15
2022-11-05T20:13:58.110Z,18.45
2022-11-05T20:16:28.286Z,14.18
2022-11-05T20:18:55.440Z,14.77
2022-11-05T20:21:22.002Z,15.75
2022-11-05T20:23:48.961Z,11.20
2022-11-05T20:26:16.159Z,13.10
2022-11-05T20:28:43.784Z,14.73
2022-11-05T20:31:14.077Z,9.80
2022-11-05T20:33:41.208Z,11.15
2022-11-05T20:36:12.313Z,10.13
2022-11-05T20:38:39.208Z,14.43
2022-11-05T20:41:10.975Z,12.50
2022-11-05T20:43:40.816Z,14.25
2022-11-05T20:46:09.044Z,10.95
2022-11-05T20:48:35.714Z,8.95
2022-11-05T20:51:11.071Z,14.30
2022-11-05T20:53:38.628Z,11.25
2022-11-05T20:56:08.638Z,10.95
2022-11-05T20:58:37.112Z,10.98
2022-11-05T21:01:05.167Z,10.35
2022-11-05T21:03:32.033Z,13.07
2022-11-05T21:06:00.194Z,12.63
2022-11-05T21:08:28.036Z,15.27
2022-11-05T21:10:55.540Z,12.35
2022-11-05T21:13:23.085Z,8.52
2022-11-05T21:15:55.619Z,8.05
2022-11-05T21:18:25.106Z,11.98
2022-11-05T21:20:51.791Z,16.55
2022-11-05T21:23:19.327Z,11.32
2022-11-05T21:25:46.863Z,14.05
2022-11-05T21:28:15.025Z,9.95
2022-11-05T21:30:45.574Z,12.00
2022-11-05T21:33:13.739Z,10.27
2022-11-05T21:35:44.078Z,9.27
2022-11-05T21:38:12.469Z,9.85
2022-11-05T21:40:39.674Z,11.02
2022-11-05T21:43:07.278Z,13.73
2022-11-05T21:45:34.043Z,8.27
2022-11-05T21:48:00.845Z,10.38
2022-11-05T21:50:46.015Z,12.88
2022-11-05T21:53:35.285Z,9.13
2022-11-05T21:56:36.122Z,10.85
2022-11-05T21:59:21.830Z,11.60
2022-11-05T22:01:48.656Z,11.13
2022-11-05T22:04:16.166Z,9.32
2022-11-05T22:06:42.866Z,12.00
2022-11-05T22:09:09.437Z,10.10
2022-11-05T22:11:38.097Z,10.20
2022-11-05T22:14:04.740Z,9.38
2022-11-05T22:16:31.320Z,8.52
2022-11-05T22:18:58.812Z,11.73
2022-11-05T22:21:25.358Z,14.88
2022-11-05T22:23:53.019Z,8.30
2022-11-05T22:26:19.987Z,11.07
2022-11-05T22:28:46.600Z,8.43
2022-11-05T22:31:14.267Z,14.93
2022-11-05T22:33:41.223Z,7.90
2022-11-05T22:36:08.297Z,8.73
2022-11-05T22:38:34.978Z,11.35
2022-11-05T22:41:14.794Z,10.05
2022-11-05T22:43:41.508Z,11.98
2022-11-05T22:46:10.624Z,11.23
2022-11-05T22:48:38.708Z,11.38
2022-11-05T22:51:08.036Z,7.95
2022-11-05T22:53:35.589Z,12.02
2022-11-05T22:56:04.066Z,10.57
2022-11-05T22:58:30.761Z,9.27
2022-11-05T23:00:57.845Z,7.65
2022-11-05T23:03:26.159Z,10.32
2022-11-05T23:06:29.834Z,9.98
2022-11-05T23:09:14.945Z,8.85
2022-11-05T23:11:44.130Z,11.60
2022-11-05T23:14:13.225Z,8.68
2022-11-05T23:16:58.933Z,11.05
2022-11-05T23:19:44.460Z,7.35
2022-11-05T23:22:49.254Z,10.20
2022-11-05T23:25:23.459Z,8.13
2022-11-05T23:27:54.266Z,9.88
2022-11-05T23:30:24.116Z,7.25
2022-11-05T23:32:51.620Z,9.13
2022-11-05T23:35:38.694Z,10.27
2022-11-05T23:38:24.129Z,7.93
2022-11-05T23:41:09.399Z,13.48
2022-11-05T23:43:54.521Z,10.95
2022-11-05T23:46:39.589Z,8.00
2022-11-05T23:49:06.585Z,14.80
2022-11-05T23:51:33.241Z,13.70
2022-11-05T23:53:59.790Z,12.55
2022-11-05T23:56:26.719Z,11.15
2022-11-05T23:58:53.262Z,12.13
